»·PEaware :: N316AS KBUR-KLGB

N316AS :: KBUR-KLGB

FLIGHT INFORMATION

Flight Status: Arrived
Operator: Privately registered:
United States
More flights under this callsign
Pilot: Aero Safety Training (369)
Aircraft: CESSNA 172 SKYHAWK
(C172)
More flights by this aircraft type
Origin: KBUR Bob Hope-Burbank
United States
Destination: KLGB Long Beach
United States
More flights between these airports :: More routes between these airports
Route: ELMOO6 ELMOO V186 ADAMM V394 SLI
File this flight plan on PilotEdge
Remarks: Weather is set to 900' OVC Please issue random hold enroute. Please cause missed during circle to land.
Altitude:
(Current/Filed)
5,000ft
Speed:
(Current/Filed)
105kts
Departed: 17-Nov-14 10:44 AM
Arrived: 17-Nov-14 11:32 AM
Distance/Time
Traveled:
25nm/0:47
Distance/Time
To Go:
Arrived

Flight Plot

Page will automatically refresh every two minutes.


Map Options




Map Legend


Flown Route
Filed Route
Departure Airport
Arrival Airport
Navaid (VOR, NDB)
Fix

Horizontal Profiles

Position Reports

Time Latitude Longitude Heading Altitude Ground
Speed
17-Nov-14 10:25 34.199925 -118.359588 75 781ft 0kts
17-Nov-14 10:26 34.199926 -118.359585 75 781ft 0kts
17-Nov-14 10:27 34.199926 -118.359582 75 781ft 0kts
17-Nov-14 10:28 34.199927 -118.359579 75 781ft 0kts
17-Nov-14 10:29 34.199927 -118.359576 75 781ft 0kts
17-Nov-14 10:30 34.199928 -118.359573 75 781ft 0kts
17-Nov-14 10:31 34.199929 -118.359570 75 781ft 0kts
17-Nov-14 10:32 34.199929 -118.359568 75 781ft 0kts
17-Nov-14 10:33 34.199930 -118.359565 75 781ft 0kts
17-Nov-14 10:34 34.199930 -118.359562 75 781ft 0kts
17-Nov-14 10:35 34.199941 -118.359507 79 781ft 5kts
17-Nov-14 10:36 34.198962 -118.360765 270 781ft 17kts
17-Nov-14 10:37 34.198984 -118.366464 270 781ft 15kts
17-Nov-14 10:38 34.198572 -118.368953 183 781ft 0kts
17-Nov-14 10:39 34.198566 -118.368954 182 781ft 0kts
17-Nov-14 10:40 34.198561 -118.368954 182 781ft 0kts
17-Nov-14 10:41 34.198553 -118.368954 182 781ft 0kts
17-Nov-14 10:42 34.197743 -118.358295 93 984ft 70kts
17-Nov-14 10:43 34.187368 -118.340454 130 1753ft 73kts
17-Nov-14 10:44 34.173529 -118.321377 131 2560ft 79kts
17-Nov-14 10:45 34.158587 -118.301443 131 3484ft 78kts
17-Nov-14 10:46 34.149917 -118.277289 106 4266ft 81kts
17-Nov-14 10:47 34.144253 -118.252412 105 4955ft 74kts
17-Nov-14 10:48 34.135487 -118.221938 109 5067ft 107kts
17-Nov-14 10:49 34.126031 -118.187121 106 5033ft 106kts
17-Nov-14 10:50 34.116357 -118.153564 104 5002ft 105kts
17-Nov-14 10:51 34.107562 -118.119826 103 4989ft 104kts
17-Nov-14 10:52 34.098259 -118.086673 104 4992ft 104kts
17-Nov-14 10:53 34.089732 -118.053384 106 5059ft 106kts
17-Nov-14 10:54 34.079970 -118.020755 106 5091ft 109kts
17-Nov-14 10:55 34.068646 -117.983748 107 4990ft 117kts
17-Nov-14 10:56 34.057848 -117.948654 107 4994ft 107kts
17-Nov-14 10:57 34.047595 -117.915317 106 4997ft 105kts
17-Nov-14 10:58 34.037419 -117.882275 107 4998ft 104kts
17-Nov-14 10:59 34.028842 -117.854931 114 5000ft 104kts
17-Nov-14 11:00 34.015246 -117.825069 125 5052ft 104kts
17-Nov-14 11:01 33.988203 -117.829080 208 5030ft 107kts
17-Nov-14 11:02 33.962249 -117.845625 202 5062ft 106kts
17-Nov-14 11:03 33.934184 -117.857687 197 5083ft 109kts
17-Nov-14 11:04 33.905671 -117.870392 200 5169ft 109kts
17-Nov-14 11:05 33.875838 -117.884164 207 5096ft 113kts
17-Nov-14 11:06 33.847287 -117.901068 202 5008ft 114kts
17-Nov-14 11:07 33.820285 -117.916094 246 5019ft 103kts
17-Nov-14 11:08 33.810484 -117.948629 253 5016ft 103kts
17-Nov-14 11:09 33.801154 -117.981359 256 5015ft 103kts
17-Nov-14 11:10 33.793536 -118.014558 255 5016ft 103kts
17-Nov-14 11:11 33.785175 -118.047373 256 5014ft 101kts
17-Nov-14 11:12 33.798077 -118.058860 59 5020ft 91kts
17-Nov-14 11:13 33.805242 -118.028329 70 5024ft 93kts
17-Nov-14 11:14 33.791585 -118.014026 234 5008ft 101kts
17-Nov-14 11:15 33.785110 -118.046278 255 5023ft 103kts
17-Nov-14 11:16 33.770377 -118.074306 194 4460ft 107kts
17-Nov-14 11:17 33.741488 -118.077010 146 3753ft 103kts
17-Nov-14 11:18 33.718062 -118.056301 139 3079ft 105kts
17-Nov-14 11:19 33.695456 -118.034832 139 2445ft 101kts
17-Nov-14 11:20 33.678042 -118.010242 79 2085ft 102kts
17-Nov-14 11:21 33.702616 -117.994652 12 2088ft 110kts
17-Nov-14 11:22 33.732195 -118.000985 339 2042ft 102kts
17-Nov-14 11:23 33.757827 -118.012865 338 2037ft 94kts
17-Nov-14 11:24 33.775411 -118.030024 270 1978ft 81kts
17-Nov-14 11:25 33.781366 -118.052616 313 2005ft 86kts
17-Nov-14 11:26 33.790272 -118.079272 294 1648ft 92kts
17-Nov-14 11:27 33.799357 -118.108935 293 915ft 93kts
17-Nov-14 11:28 33.802362 -118.137615 269 829ft 90kts
17-Nov-14 11:29 33.811525 -118.147998 1 88ft 47kts
17-Nov-14 11:30 33.816244 -118.147507 131 63ft 9kts
17-Nov-14 11:31 33.816197 -118.147451 136 63ft 2kts
17-Nov-14 11:32 33.818131 -118.145760 87 63ft 12kts
17-Nov-14 11:33 33.818102 -118.145104 89 63ft 0kts
17-Nov-14 11:34 33.818102 -118.145102 89 63ft 0kts

Navigation Log

Ident Type
1. KBUR Airport
2. ELMOO Fix
3. ITSME Fix
4. PIRRO Fix
5. ADAMM Fix
6. POWUP Fix
7. AHEIM Fix
8. SLI Navaid
9. KLGB Airport